sensor_id;sensor_type;location;lat;lon;timestamp;temperature;humidity
2721;DHT22;1368;49.484;11.112;2023-04-24T00:00:55;12.10;99.90
2721;DHT22;1368;49.484;11.112;2023-04-24T00:03:26;12.10;99.90
2721;DHT22;1368;49.484;11.112;2023-04-24T00:05:56;11.90;99.90
2721;DHT22;1368;49.484;11.112;2023-04-24T00:08:21;11.60;99.90
2721;DHT22;1368;49.484;11.112;2023-04-24T00:10:48;11.40;99.90
2721;DHT22;1368;49.484;11.112;2023-04-24T00:13:13;11.40;99.90
2721;DHT22;1368;49.484;11.112;2023-04-24T00:15:39;11.50;99.90
2721;DHT22;1368;49.484;11.112;2023-04-24T00:18:04;11.30;99.90
2721;DHT22;1368;49.484;11.112;2023-04-24T00:20:30;11.40;99.90
2721;DHT22;1368;49.484;11.112;2023-04-24T00:22:57;11.60;99.90
2721;DHT22;1368;49.484;11.112;2023-04-24T00:25:23;11.60;99.90
2721;DHT22;1368;49.484;11.112;2023-04-24T00:27:49;11.80;99.90
2721;DHT22;1368;49.484;11.112;2023-04-24T00:30:14;11.90;99.90
2721;DHT22;1368;49.484;11.112;2023-04-24T00:32:40;11.80;99.90
2721;DHT22;1368;49.484;11.112;2023-04-24T00:35:06;11.80;99.90
2721;DHT22;1368;49.484;11.112;2023-04-24T00:37:31;12.10;99.90
2721;DHT22;1368;49.484;11.112;2023-04-24T00:39:57;12.30;99.90
2721;DHT22;1368;49.484;11.112;2023-04-24T00:42:23;12.40;99.90
2721;DHT22;1368;49.484;11.112;2023-04-24T00:44:49;12.20;99.90
2721;DHT22;1368;49.484;11.112;2023-04-24T00:47:15;11.90;99.90
2721;DHT22;1368;49.484;11.112;2023-04-24T00:49:40;12.00;99.90
2721;DHT22;1368;49.484;11.112;2023-04-24T00:52:06;12.10;99.90
2721;DHT22;1368;49.484;11.112;2023-04-24T00:54:36;12.20;99.90
2721;DHT22;1368;49.484;11.112;2023-04-24T00:57:05;12.20;99.90
2721;DHT22;1368;49.484;11.112;2023-04-24T00:59:31;12.10;99.90
2721;DHT22;1368;49.484;11.112;2023-04-24T01:01:58;12.10;99.90
2721;DHT22;1368;49.484;11.112;2023-04-24T01:04:24;12.20;99.90
2721;DHT22;1368;49.484;11.112;2023-04-24T01:06:51;12.30;99.90
2721;DHT22;1368;49.484;11.112;2023-04-24T01:09:18;12.20;99.90
2721;DHT22;1368;49.484;11.112;2023-04-24T01:11:43;12.10;99.90
2721;DHT22;1368;49.484;11.112;2023-04-24T01:14:09;12.00;99.90
2721;DHT22;1368;49.484;11.112;2023-04-24T01:16:35;12.10;99.90
2721;DHT22;1368;49.484;11.112;2023-04-24T01:19:01;12.30;99.90
2721;DHT22;1368;49.484;11.112;2023-04-24T01:21:28;12.40;99.90
2721;DHT22;1368;49.484;11.112;2023-04-24T01:23:55;12.40;99.90
2721;DHT22;1368;49.484;11.112;2023-04-24T01:26:23;12.40;99.90
2721;DHT22;1368;49.484;11.112;2023-04-24T01:28:48;12.40;99.90
2721;DHT22;1368;49.484;11.112;2023-04-24T01:31:15;12.50;99.90
2721;DHT22;1368;49.484;11.112;2023-04-24T01:33:47;12.50;99.90
2721;DHT22;1368;49.484;11.112;2023-04-24T01:36:13;12.60;99.90
2721;DHT22;1368;49.484;11.112;2023-04-24T01:38:39;12.70;99.90
2721;DHT22;1368;49.484;11.112;2023-04-24T01:41:04;12.50;99.90
2721;DHT22;1368;49.484;11.112;2023-04-24T01:43:30;12.50;99.90
2721;DHT22;1368;49.484;11.112;2023-04-24T01:45:56;12.50;99.90
2721;DHT22;1368;49.484;11.112;2023-04-24T01:48:22;12.60;99.90
2721;DHT22;1368;49.484;11.112;2023-04-24T01:50:47;12.60;99.90
2721;DHT22;1368;49.484;11.112;2023-04-24T01:53:13;12.60;99.90
2721;DHT22;1368;49.484;11.112;2023-04-24T01:55:39;12.60;99.90
2721;DHT22;1368;49.484;11.112;2023-04-24T01:58:05;12.60;99.90
2721;DHT22;1368;49.484;11.112;2023-04-24T02:00:31;12.70;99.90
2721;DHT22;1368;49.484;11.112;2023-04-24T02:02:56;12.70;99.90
2721;DHT22;1368;49.484;11.112;2023-04-24T02:05:22;12.60;99.90
2721;DHT22;1368;49.484;11.112;2023-04-24T02:07:47;12.60;99.90
2721;DHT22;1368;49.484;11.112;2023-04-24T02:10:13;12.60;99.90
2721;DHT22;1368;49.484;11.112;2023-04-24T02:12:38;12.70;99.90
2721;DHT22;1368;49.484;11.112;2023-04-24T02:15:04;12.80;99.90
2721;DHT22;1368;49.484;11.112;2023-04-24T02:17:30;12.70;99.90
2721;DHT22;1368;49.484;11.112;2023-04-24T02:19:56;12.80;99.90
2721;DHT22;1368;49.484;11.112;2023-04-24T02:22:21;12.60;99.90
2721;DHT22;1368;49.484;11.112;2023-04-24T02:24:47;12.60;99.90
2721;DHT22;1368;49.484;11.112;2023-04-24T02:27:12;12.60;99.90
2721;DHT22;1368;49.484;11.112;2023-04-24T02:29:38;12.70;99.90
2721;DHT22;1368;49.484;11.112;2023-04-24T02:32:04;12.70;99.90
2721;DHT22;1368;49.484;11.112;2023-04-24T02:34:29;12.80;99.90
2721;DHT22;1368;49.484;11.112;2023-04-24T02:36:55;12.80;99.90
2721;DHT22;1368;49.484;11.112;2023-04-24T02:39:21;12.80;99.90
2721;DHT22;1368;49.484;11.112;2023-04-24T02:41:46;12.80;99.90
2721;DHT22;1368;49.484;11.112;2023-04-24T02:44:12;12.60;99.90
2721;DHT22;1368;49.484;11.112;2023-04-24T02:46:38;12.30;99.90
2721;DHT22;1368;49.484;11.112;2023-04-24T02:49:03;12.40;99.90
2721;DHT22;1368;49.484;11.112;2023-04-24T02:51:29;12.40;99.90
2721;DHT22;1368;49.484;11.112;2023-04-24T02:53:55;12.50;99.90
2721;DHT22;1368;49.484;11.112;2023-04-24T02:56:20;12.40;99.90
2721;DHT22;1368;49.484;11.112;2023-04-24T02:58:46;12.50;99.90
2721;DHT22;1368;49.484;11.112;2023-04-24T03:01:11;12.70;99.90
2721;DHT22;1368;49.484;11.112;2023-04-24T03:03:38;12.70;99.90
2721;DHT22;1368;49.484;11.112;2023-04-24T03:06:04;12.80;99.90
2721;DHT22;1368;49.484;11.112;2023-04-24T03:08:31;12.80;99.90
2721;DHT22;1368;49.484;11.112;2023-04-24T03:10:57;12.70;99.90
2721;DHT22;1368;49.484;11.112;2023-04-24T03:13:22;12.80;99.90
2721;DHT22;1368;49.484;11.112;2023-04-24T03:15:48;12.80;99.90
2721;DHT22;1368;49.484;11.112;2023-04-24T03:18:13;12.60;99.90
2721;DHT22;1368;49.484;11.112;2023-04-24T03:20:39;12.80;99.90
2721;DHT22;1368;49.484;11.112;2023-04-24T03:23:05;12.60;99.90
2721;DHT22;1368;49.484;11.112;2023-04-24T03:25:30;12.70;99.90
2721;DHT22;1368;49.484;11.112;2023-04-24T03:27:56;12.80;99.90
2721;DHT22;1368;49.484;11.112;2023-04-24T03:30:21;12.80;99.90
2721;DHT22;1368;49.484;11.112;2023-04-24T03:32:47;12.80;99.90
2721;DHT22;1368;49.484;11.112;2023-04-24T03:35:12;12.50;99.90
2721;DHT22;1368;49.484;11.112;2023-04-24T03:37:38;12.10;99.90
2721;DHT22;1368;49.484;11.112;2023-04-24T03:40:04;11.90;99.90
2721;DHT22;1368;49.484;11.112;2023-04-24T03:42:31;11.60;99.90
2721;DHT22;1368;49.484;11.112;2023-04-24T03:44:56;11.60;99.90
2721;DHT22;1368;49.484;11.112;2023-04-24T03:47:22;11.70;99.90
2721;DHT22;1368;49.484;11.112;2023-04-24T03:49:48;11.60;99.90
2721;DHT22;1368;49.484;11.112;2023-04-24T03:52:13;11.50;99.90
2721;DHT22;1368;49.484;11.112;2023-04-24T03:54:39;11.70;99.90
2721;DHT22;1368;49.484;11.112;2023-04-24T03:57:04;11.60;99.90
2721;DHT22;1368;49.484;11.112;2023-04-24T03:59:30;11.50;99.90
2721;DHT22;1368;49.484;11.112;2023-04-24T04:01:56;11.70;99.90
2721;DHT22;1368;49.484;11.112;2023-04-24T04:04:21;11.90;99.90
2721;DHT22;1368;49.484;11.112;2023-04-24T04:06:47;11.70;99.90
2721;DHT22;1368;49.484;11.112;2023-04-24T04:09:13;11.90;99.90
2721;DHT22;1368;49.484;11.112;2023-04-24T04:11:39;11.80;99.90
2721;DHT22;1368;49.484;11.112;2023-04-24T04:14:04;11.60;99.90
2721;DHT22;1368;49.484;11.112;2023-04-24T04:16:30;11.40;99.90
2721;DHT22;1368;49.484;11.112;2023-04-24T04:18:56;11.50;99.90
2721;DHT22;1368;49.484;11.112;2023-04-24T04:21:22;11.70;99.90
2721;DHT22;1368;49.484;11.112;2023-04-24T04:23:47;11.50;99.90
2721;DHT22;1368;49.484;11.112;2023-04-24T04:26:13;11.70;99.90
2721;DHT22;1368;49.484;11.112;2023-04-24T04:28:39;11.70;99.90
2721;DHT22;1368;49.484;11.112;2023-04-24T04:31:05;11.80;99.90
2721;DHT22;1368;49.484;11.112;2023-04-24T04:33:30;11.70;99.90
2721;DHT22;1368;49.484;11.112;2023-04-24T04:35:57;11.60;99.90
2721;DHT22;1368;49.484;11.112;2023-04-24T04:38:23;11.80;99.90
2721;DHT22;1368;49.484;11.112;2023-04-24T04:40:48;11.90;99.90
2721;DHT22;1368;49.484;11.112;2023-04-24T04:43:14;11.70;99.90
2721;DHT22;1368;49.484;11.112;2023-04-24T04:45:42;11.30;99.90
2721;DHT22;1368;49.484;11.112;2023-04-24T04:48:09;11.40;99.90
2721;DHT22;1368;49.484;11.112;2023-04-24T04:50:35;11.20;99.90
2721;DHT22;1368;49.484;11.112;2023-04-24T04:53:00;11.40;99.90
2721;DHT22;1368;49.484;11.112;2023-04-24T04:55:26;11.60;99.90
2721;DHT22;1368;49.484;11.112;2023-04-24T04:57:52;11.50;99.90
2721;DHT22;1368;49.484;11.112;2023-04-24T05:00:18;11.50;99.90
2721;DHT22;1368;49.484;11.112;2023-04-24T05:02:43;11.80;99.90
2721;DHT22;1368;49.484;11.112;2023-04-24T05:05:09;11.60;99.90
2721;DHT22;1368;49.484;11.112;2023-04-24T05:07:35;11.00;99.90
2721;DHT22;1368;49.484;11.112;2023-04-24T05:10:01;10.90;99.90
2721;DHT22;1368;49.484;11.112;2023-04-24T05:12:26;11.20;99.90
2721;DHT22;1368;49.484;11.112;2023-04-24T05:14:52;11.50;99.90
2721;DHT22;1368;49.484;11.112;2023-04-24T05:17:18;11.90;99.90
2721;DHT22;1368;49.484;11.112;2023-04-24T05:19:44;12.30;99.90
2721;DHT22;1368;49.484;11.112;2023-04-24T05:22:10;12.30;99.90
2721;DHT22;1368;49.484;11.112;2023-04-24T05:24:37;12.20;99.90
2721;DHT22;1368;49.484;11.112;2023-04-24T05:27:03;12.30;99.90
2721;DHT22;1368;49.484;11.112;2023-04-24T05:29:30;12.50;99.90
2721;DHT22;1368;49.484;11.112;2023-04-24T05:31:59;12.60;99.90
2721;DHT22;1368;49.484;11.112;2023-04-24T05:34:25;12.80;99.90
2721;DHT22;1368;49.484;11.112;2023-04-24T05:36:51;13.20;99.90
2721;DHT22;1368;49.484;11.112;2023-04-24T05:39:17;13.20;99.90
2721;DHT22;1368;49.484;11.112;2023-04-24T05:41:43;13.10;99.90
2721;DHT22;1368;49.484;11.112;2023-04-24T05:44:08;13.20;99.90
2721;DHT22;1368;49.484;11.112;2023-04-24T05:46:34;13.40;99.90
2721;DHT22;1368;49.484;11.112;2023-04-24T05:49:00;13.70;99.90
2721;DHT22;1368;49.484;11.112;2023-04-24T05:51:25;14.40;99.90
2721;DHT22;1368;49.484;11.112;2023-04-24T05:53:51;14.00;99.90
2721;DHT22;1368;49.484;11.112;2023-04-24T05:56:17;14.00;99.90
2721;DHT22;1368;49.484;11.112;2023-04-24T05:58:43;14.00;99.90
2721;DHT22;1368;49.484;11.112;2023-04-24T06:01:09;13.80;99.90
2721;DHT22;1368;49.484;11.112;2023-04-24T06:03:34;13.80;99.90
2721;DHT22;1368;49.484;11.112;2023-04-24T06:06:00;13.90;99.90
2721;DHT22;1368;49.484;11.112;2023-04-24T06:08:26;13.80;99.90
2721;DHT22;1368;49.484;11.112;2023-04-24T06:10:51;13.80;99.90
2721;DHT22;1368;49.484;11.112;2023-04-24T06:13:17;13.60;99.90
2721;DHT22;1368;49.484;11.112;2023-04-24T06:15:43;13.40;99.90
2721;DHT22;1368;49.484;11.112;2023-04-24T06:18:09;13.60;99.90
2721;DHT22;1368;49.484;11.112;2023-04-24T06:20:35;13.60;99.90
2721;DHT22;1368;49.484;11.112;2023-04-24T06:23:01;13.90;99.90
2721;DHT22;1368;49.484;11.112;2023-04-24T06:25:28;14.20;99.90
2721;DHT22;1368;49.484;11.112;2023-04-24T06:27:54;14.20;99.90
2721;DHT22;1368;49.484;11.112;2023-04-24T06:30:21;14.00;99.90
2721;DHT22;1368;49.484;11.112;2023-04-24T06:32:46;13.90;99.90
2721;DHT22;1368;49.484;11.112;2023-04-24T06:35:12;13.70;99.90
2721;DHT22;1368;49.484;11.112;2023-04-24T06:37:39;13.60;99.90
2721;DHT22;1368;49.484;11.112;2023-04-24T06:40:05;13.50;99.90
2721;DHT22;1368;49.484;11.112;2023-04-24T06:42:31;13.40;99.90
2721;DHT22;1368;49.484;11.112;2023-04-24T06:44:57;13.20;99.90
2721;DHT22;1368;49.484;11.112;2023-04-24T06:47:22;12.80;99.90
2721;DHT22;1368;49.484;11.112;2023-04-24T06:49:48;12.20;99.90
2721;DHT22;1368;49.484;11.112;2023-04-24T06:52:16;12.10;99.90
2721;DHT22;1368;49.484;11.112;2023-04-24T06:54:42;11.90;99.90
2721;DHT22;1368;49.484;11.112;2023-04-24T06:57:08;12.00;99.90
2721;DHT22;1368;49.484;11.112;2023-04-24T06:59:34;12.10;99.90
2721;DHT22;1368;49.484;11.112;2023-04-24T07:02:00;12.30;99.90
2721;DHT22;1368;49.484;11.112;2023-04-24T07:04:25;12.60;99.90
2721;DHT22;1368;49.484;11.112;2023-04-24T07:06:51;12.90;99.90
2721;DHT22;1368;49.484;11.112;2023-04-24T07:09:19;13.10;99.90
2721;DHT22;1368;49.484;11.112;2023-04-24T07:11:45;13.30;99.90
2721;DHT22;1368;49.484;11.112;2023-04-24T07:14:12;13.40;99.90
2721;DHT22;1368;49.484;11.112;2023-04-24T07:16:37;13.70;99.90
2721;DHT22;1368;49.484;11.112;2023-04-24T07:19:03;13.90;99.90
2721;DHT22;1368;49.484;11.112;2023-04-24T07:21:29;14.10;99.90
2721;DHT22;1368;49.484;11.112;2023-04-24T07:23:56;14.00;99.90
2721;DHT22;1368;49.484;11.112;2023-04-24T07:26:21;14.10;99.90
2721;DHT22;1368;49.484;11.112;2023-04-24T07:28:47;14.10;99.90
2721;DHT22;1368;49.484;11.112;2023-04-24T07:31:13;14.50;99.90
2721;DHT22;1368;49.484;11.112;2023-04-24T07:33:38;14.40;99.90
2721;DHT22;1368;49.484;11.112;2023-04-24T07:36:04;14.50;99.90
2721;DHT22;1368;49.484;11.112;2023-04-24T07:38:30;14.90;99.90
2721;DHT22;1368;49.484;11.112;2023-04-24T07:40:56;15.00;99.90
2721;DHT22;1368;49.484;11.112;2023-04-24T07:43:21;14.90;99.90
2721;DHT22;1368;49.484;11.112;2023-04-24T07:45:52;14.80;99.90
2721;DHT22;1368;49.484;11.112;2023-04-24T07:48:17;14.60;99.90
2721;DHT22;1368;49.484;11.112;2023-04-24T07:50:43;14.50;99.90
2721;DHT22;1368;49.484;11.112;2023-04-24T07:53:09;14.10;99.90
2721;DHT22;1368;49.484;11.112;2023-04-24T07:55:35;13.90;99.90
2721;DHT22;1368;49.484;11.112;2023-04-24T07:58:01;13.80;99.90
2721;DHT22;1368;49.484;11.112;2023-04-24T08:00:26;13.90;99.90
2721;DHT22;1368;49.484;11.112;2023-04-24T08:02:52;14.00;99.90
2721;DHT22;1368;49.484;11.112;2023-04-24T08:05:18;14.10;99.90
2721;DHT22;1368;49.484;11.112;2023-04-24T08:07:43;14.30;99.90
2721;DHT22;1368;49.484;11.112;2023-04-24T08:10:11;14.90;99.90
2721;DHT22;1368;49.484;11.112;2023-04-24T08:12:37;15.20;99.90
2721;DHT22;1368;49.484;11.112;2023-04-24T08:15:03;16.20;99.90
2721;DHT22;1368;49.484;11.112;2023-04-24T08:17:29;15.80;99.90
2721;DHT22;1368;49.484;11.112;2023-04-24T08:19:54;16.40;99.90
2721;DHT22;1368;49.484;11.112;2023-04-24T08:22:26;17.00;99.90
2721;DHT22;1368;49.484;11.112;2023-04-24T08:24:52;17.50;99.90
2721;DHT22;1368;49.484;11.112;2023-04-24T08:27:18;16.90;99.90
2721;DHT22;1368;49.484;11.112;2023-04-24T08:29:43;17.20;99.90
2721;DHT22;1368;49.484;11.112;2023-04-24T08:32:09;17.20;99.90
2721;DHT22;1368;49.484;11.112;2023-04-24T08:34:35;16.30;99.90
2721;DHT22;1368;49.484;11.112;2023-04-24T08:37:00;16.00;99.90
2721;DHT22;1368;49.484;11.112;2023-04-24T08:39:26;15.50;99.90
2721;DHT22;1368;49.484;11.112;2023-04-24T08:41:52;14.80;99.90
2721;DHT22;1368;49.484;11.112;2023-04-24T08:44:19;15.10;99.90
2721;DHT22;1368;49.484;11.112;2023-04-24T08:46:45;15.40;99.90
2721;DHT22;1368;49.484;11.112;2023-04-24T08:49:14;16.10;99.90
2721;DHT22;1368;49.484;11.112;2023-04-24T08:51:41;16.20;99.90
2721;DHT22;1368;49.484;11.112;2023-04-24T08:54:07;16.20;99.90
2721;DHT22;1368;49.484;11.112;2023-04-24T08:56:34;17.00;99.90
2721;DHT22;1368;49.484;11.112;2023-04-24T08:59:04;17.80;99.90
2721;DHT22;1368;49.484;11.112;2023-04-24T09:01:32;17.90;99.90
2721;DHT22;1368;49.484;11.112;2023-04-24T09:04:03;18.10;99.90
2721;DHT22;1368;49.484;11.112;2023-04-24T09:06:30;18.00;99.90
2721;DHT22;1368;49.484;11.112;2023-04-24T09:09:00;17.70;99.90
2721;DHT22;1368;49.484;11.112;2023-04-24T09:11:26;17.50;99.90
2721;DHT22;1368;49.484;11.112;2023-04-24T09:13:54;17.00;99.90
2721;DHT22;1368;49.484;11.112;2023-04-24T09:16:20;16.30;99.90
2721;DHT22;1368;49.484;11.112;2023-04-24T09:18:48;16.00;99.90
2721;DHT22;1368;49.484;11.112;2023-04-24T09:21:14;16.80;99.90
2721;DHT22;1368;49.484;11.112;2023-04-24T09:23:40;16.90;99.90
2721;DHT22;1368;49.484;11.112;2023-04-24T09:26:06;17.50;99.90
2721;DHT22;1368;49.484;11.112;2023-04-24T09:28:39;18.90;99.90
2721;DHT22;1368;49.484;11.112;2023-04-24T09:31:12;19.40;99.90
2721;DHT22;1368;49.484;11.112;2023-04-24T09:33:39;19.50;97.60
2721;DHT22;1368;49.484;11.112;2023-04-24T09:36:05;19.10;97.80
2721;DHT22;1368;49.484;11.112;2023-04-24T09:38:36;18.30;99.40
2721;DHT22;1368;49.484;11.112;2023-04-24T09:41:05;17.60;99.20
2721;DHT22;1368;49.484;11.112;2023-04-24T09:43:31;16.80;99.90
2721;DHT22;1368;49.484;11.112;2023-04-24T09:45:58;16.90;99.90
2721;DHT22;1368;49.484;11.112;2023-04-24T09:48:34;18.00;99.90
2721;DHT22;1368;49.484;11.112;2023-04-24T09:51:02;18.60;99.90
2721;DHT22;1368;49.484;11.112;2023-04-24T09:53:29;18.80;99.90
2721;DHT22;1368;49.484;11.112;2023-04-24T09:55:55;18.50;99.30
2721;DHT22;1368;49.484;11.112;2023-04-24T09:58:26;18.20;99.60
2721;DHT22;1368;49.484;11.112;2023-04-24T10:00:55;18.30;99.80
2721;DHT22;1368;49.484;11.112;2023-04-24T10:03:24;18.60;99.00
2721;DHT22;1368;49.484;11.112;2023-04-24T10:05:51;18.70;96.60
2721;DHT22;1368;49.484;11.112;2023-04-24T10:08:17;18.70;96.90
2721;DHT22;1368;49.484;11.112;2023-04-24T10:10:46;18.60;95.20
2721;DHT22;1368;49.484;11.112;2023-04-24T10:13:13;18.30;95.70
2721;DHT22;1368;49.484;11.112;2023-04-24T10:15:41;18.10;96.00
2721;DHT22;1368;49.484;11.112;2023-04-24T10:18:07;18.00;97.10
2721;DHT22;1368;49.484;11.112;2023-04-24T10:20:35;18.40;96.70
2721;DHT22;1368;49.484;11.112;2023-04-24T10:23:01;19.10;95.70
2721;DHT22;1368;49.484;11.112;2023-04-24T10:25:29;20.00;93.70
2721;DHT22;1368;49.484;11.112;2023-04-24T10:27:56;20.40;89.90
2721;DHT22;1368;49.484;11.112;2023-04-24T10:30:23;20.20;90.30
2721;DHT22;1368;49.484;11.112;2023-04-24T10:32:49;19.40;91.90
2721;DHT22;1368;49.484;11.112;2023-04-24T10:35:15;18.50;93.50
2721;DHT22;1368;49.484;11.112;2023-04-24T10:37:48;17.30;93.50
2721;DHT22;1368;49.484;11.112;2023-04-24T10:40:27;17.20;94.20
2721;DHT22;1368;49.484;11.112;2023-04-24T10:42:56;16.50;96.00
2721;DHT22;1368;49.484;11.112;2023-04-24T10:45:23;16.00;99.30
2721;DHT22;1368;49.484;11.112;2023-04-24T10:48:08;15.40;99.90
2721;DHT22;1368;49.484;11.112;2023-04-24T10:50:51;15.10;99.90
2721;DHT22;1368;49.484;11.112;2023-04-24T10:53:19;15.00;99.90
2721;DHT22;1368;49.484;11.112;2023-04-24T10:55:50;15.10;99.90
2721;DHT22;1368;49.484;11.112;2023-04-24T10:58:16;15.20;99.90
2721;DHT22;1368;49.484;11.112;2023-04-24T11:00:43;14.90;99.90
2721;DHT22;1368;49.484;11.112;2023-04-24T11:03:38;14.70;99.90
2721;DHT22;1368;49.484;11.112;2023-04-24T11:06:08;14.60;99.90
2721;DHT22;1368;49.484;11.112;2023-04-24T11:08:44;14.20;99.90
2721;DHT22;1368;49.484;11.112;2023-04-24T11:11:18;13.90;99.90
2721;DHT22;1368;49.484;11.112;2023-04-24T11:19:06;14.10;99.90
2721;DHT22;1368;49.484;11.112;2023-04-24T11:29:58;14.80;98.50
2721;DHT22;1368;49.484;11.112;2023-04-24T11:32:33;15.20;99.50
2721;DHT22;1368;49.484;11.112;2023-04-24T11:35:08;15.60;97.70
2721;DHT22;1368;49.484;11.112;2023-04-24T11:37:37;15.90;97.70
2721;DHT22;1368;49.484;11.112;2023-04-24T11:40:04;16.40;98.30
2721;DHT22;1368;49.484;11.112;2023-04-24T11:42:41;16.80;96.90
2721;DHT22;1368;49.484;11.112;2023-04-24T11:45:18;16.70;96.80
2721;DHT22;1368;49.484;11.112;2023-04-24T11:47:44;16.60;97.10
2721;DHT22;1368;49.484;11.112;2023-04-24T11:50:19;17.30;98.10
2721;DHT22;1368;49.484;11.112;2023-04-24T11:52:46;17.50;97.10
2721;DHT22;1368;49.484;11.112;2023-04-24T11:57:48;15.90;98.10
2721;DHT22;1368;49.484;11.112;2023-04-24T12:00:19;15.40;99.00
2721;DHT22;1368;49.484;11.112;2023-04-24T12:02:46;15.00;99.90
2721;DHT22;1368;49.484;11.112;2023-04-24T12:07:46;14.40;99.90
2721;DHT22;1368;49.484;11.112;2023-04-24T12:10:12;14.40;99.90
2721;DHT22;1368;49.484;11.112;2023-04-24T12:12:38;14.50;99.90
2721;DHT22;1368;49.484;11.112;2023-04-24T12:15:08;14.80;99.50
2721;DHT22;1368;49.484;11.112;2023-04-24T12:17:34;14.80;99.70
2721;DHT22;1368;49.484;11.112;2023-04-24T12:20:03;15.00;99.30
2721;DHT22;1368;49.484;11.112;2023-04-24T12:25:10;15.90;98.70
2721;DHT22;1368;49.484;11.112;2023-04-24T12:27:36;16.00;98.80
2721;DHT22;1368;49.484;11.112;2023-04-24T12:30:04;16.40;98.60
2721;DHT22;1368;49.484;11.112;2023-04-24T12:32:30;17.10;99.00
2721;DHT22;1368;49.484;11.112;2023-04-24T12:34:56;17.40;97.50
2721;DHT22;1368;49.484;11.112;2023-04-24T12:37:26;17.10;98.00
2721;DHT22;1368;49.484;11.112;2023-04-24T12:40:08;16.60;97.50
2721;DHT22;1368;49.484;11.112;2023-04-24T12:42:41;16.50;96.90
2721;DHT22;1368;49.484;11.112;2023-04-24T12:45:07;16.20;97.20
2721;DHT22;1368;49.484;11.112;2023-04-24T12:47:34;15.90;97.60
2721;DHT22;1368;49.484;11.112;2023-04-24T12:50:00;16.00;98.80
2721;DHT22;1368;49.484;11.112;2023-04-24T12:52:27;16.20;98.00
2721;DHT22;1368;49.484;11.112;2023-04-24T12:54:54;16.10;98.70
2721;DHT22;1368;49.484;11.112;2023-04-24T12:57:21;16.20;98.50
2721;DHT22;1368;49.484;11.112;2023-04-24T12:59:46;15.80;97.30
2721;DHT22;1368;49.484;11.112;2023-04-24T13:02:12;15.70;97.80
2721;DHT22;1368;49.484;11.112;2023-04-24T13:04:38;16.00;97.30
2721;DHT22;1368;49.484;11.112;2023-04-24T13:07:04;16.20;97.60
2721;DHT22;1368;49.484;11.112;2023-04-24T13:09:30;16.50;97.90
2721;DHT22;1368;49.484;11.112;2023-04-24T13:11:56;16.50;96.50
2721;DHT22;1368;49.484;11.112;2023-04-24T13:14:22;16.50;96.80
2721;DHT22;1368;49.484;11.112;2023-04-24T13:16:48;17.00;97.40
2721;DHT22;1368;49.484;11.112;2023-04-24T13:19:13;17.00;96.70
2721;DHT22;1368;49.484;11.112;2023-04-24T13:21:39;17.30;96.50
2721;DHT22;1368;49.484;11.112;2023-04-24T13:24:05;17.00;96.90
2721;DHT22;1368;49.484;11.112;2023-04-24T13:26:31;16.10;97.60
2721;DHT22;1368;49.484;11.112;2023-04-24T13:28:56;15.50;97.90
2721;DHT22;1368;49.484;11.112;2023-04-24T13:31:22;15.00;98.60
2721;DHT22;1368;49.484;11.112;2023-04-24T13:33:47;14.60;99.40
2721;DHT22;1368;49.484;11.112;2023-04-24T13:36:13;14.40;99.90
2721;DHT22;1368;49.484;11.112;2023-04-24T13:38:39;14.30;99.90
2721;DHT22;1368;49.484;11.112;2023-04-24T13:41:05;14.30;99.90
2721;DHT22;1368;49.484;11.112;2023-04-24T13:43:30;14.20;99.90
2721;DHT22;1368;49.484;11.112;2023-04-24T13:45:56;14.40;99.90
2721;DHT22;1368;49.484;11.112;2023-04-24T13:48:21;14.90;99.90
2721;DHT22;1368;49.484;11.112;2023-04-24T13:50:47;14.80;99.50
2721;DHT22;1368;49.484;11.112;2023-04-24T13:53:15;14.60;99.90
2721;DHT22;1368;49.484;11.112;2023-04-24T13:55:40;14.60;99.50
2721;DHT22;1368;49.484;11.112;2023-04-24T13:58:06;14.70;99.80
2721;DHT22;1368;49.484;11.112;2023-04-24T14:00:31;14.70;99.30
2721;DHT22;1368;49.484;11.112;2023-04-24T14:02:57;14.40;98.80
2721;DHT22;1368;49.484;11.112;2023-04-24T14:05:23;14.40;99.20
2721;DHT22;1368;49.484;11.112;2023-04-24T14:07:48;14.10;99.20
2721;DHT22;1368;49.484;11.112;2023-04-24T14:10:14;13.90;99.90
2721;DHT22;1368;49.484;11.112;2023-04-24T14:12:39;14.10;99.90
2721;DHT22;1368;49.484;11.112;2023-04-24T14:15:05;14.20;99.90
2721;DHT22;1368;49.484;11.112;2023-04-24T14:17:31;14.50;99.90
2721;DHT22;1368;49.484;11.112;2023-04-24T14:19:57;14.80;99.90
2721;DHT22;1368;49.484;11.112;2023-04-24T14:22:25;15.20;99.90
2721;DHT22;1368;49.484;11.112;2023-04-24T14:24:50;15.40;99.90
2721;DHT22;1368;49.484;11.112;2023-04-24T14:27:16;15.40;99.80
2721;DHT22;1368;49.484;11.112;2023-04-24T14:29:42;15.30;99.30
2721;DHT22;1368;49.484;11.112;2023-04-24T14:32:07;15.30;99.40
2721;DHT22;1368;49.484;11.112;2023-04-24T14:34:34;15.00;99.50
2721;DHT22;1368;49.484;11.112;2023-04-24T14:37:00;15.00;99.60
2721;DHT22;1368;49.484;11.112;2023-04-24T14:39:25;15.50;99.90
2721;DHT22;1368;49.484;11.112;2023-04-24T14:41:51;15.90;99.10
2721;DHT22;1368;49.484;11.112;2023-04-24T14:44:16;15.80;98.80
2721;DHT22;1368;49.484;11.112;2023-04-24T14:46:42;15.70;99.50
2721;DHT22;1368;49.484;11.112;2023-04-24T14:49:08;15.50;99.60
2721;DHT22;1368;49.484;11.112;2023-04-24T14:51:38;15.60;99.90
2721;DHT22;1368;49.484;11.112;2023-04-24T14:54:03;15.10;99.00
2721;DHT22;1368;49.484;11.112;2023-04-24T14:56:29;15.00;99.00
2721;DHT22;1368;49.484;11.112;2023-04-24T14:58:55;15.00;99.30
2721;DHT22;1368;49.484;11.112;2023-04-24T15:01:21;15.40;99.90
2721;DHT22;1368;49.484;11.112;2023-04-24T15:03:46;15.40;99.70
2721;DHT22;1368;49.484;11.112;2023-04-24T15:06:12;15.50;99.90
2721;DHT22;1368;49.484;11.112;2023-04-24T15:08:37;15.80;99.90
2721;DHT22;1368;49.484;11.112;2023-04-24T15:11:03;16.00;98.90
2721;DHT22;1368;49.484;11.112;2023-04-24T15:13:29;15.60;98.60
2721;DHT22;1368;49.484;11.112;2023-04-24T15:15:55;15.40;98.20
2721;DHT22;1368;49.484;11.112;2023-04-24T15:18:20;15.10;99.80
2721;DHT22;1368;49.484;11.112;2023-04-24T15:20:46;15.00;99.70
2721;DHT22;1368;49.484;11.112;2023-04-24T15:23:11;15.00;99.50
2721;DHT22;1368;49.484;11.112;2023-04-24T15:25:37;14.70;99.70
2721;DHT22;1368;49.484;11.112;2023-04-24T15:28:04;14.40;99.90
2721;DHT22;1368;49.484;11.112;2023-04-24T15:30:30;14.20;99.90
2721;DHT22;1368;49.484;11.112;2023-04-24T15:32:56;14.20;99.90
2721;DHT22;1368;49.484;11.112;2023-04-24T15:35:22;14.40;99.90
2721;DHT22;1368;49.484;11.112;2023-04-24T15:37:47;14.70;99.90
2721;DHT22;1368;49.484;11.112;2023-04-24T15:40:13;15.20;99.90
2721;DHT22;1368;49.484;11.112;2023-04-24T15:42:41;14.70;99.90
2721;DHT22;1368;49.484;11.112;2023-04-24T15:45:07;14.50;99.90
2721;DHT22;1368;49.484;11.112;2023-04-24T15:47:33;14.10;99.90
2721;DHT22;1368;49.484;11.112;2023-04-24T15:49:59;13.90;99.90
2721;DHT22;1368;49.484;11.112;2023-04-24T15:52:24;13.50;99.90
2721;DHT22;1368;49.484;11.112;2023-04-24T15:54:50;13.60;99.90
2721;DHT22;1368;49.484;11.112;2023-04-24T15:57:16;13.50;99.90
2721;DHT22;1368;49.484;11.112;2023-04-24T15:59:42;13.80;99.90
2721;DHT22;1368;49.484;11.112;2023-04-24T16:02:08;13.40;99.90